sensor_id;sensor_type;location;lat;lon;timestamp;pressure;altitude;pressure_sealevel;temperature;humidity
47716;BME280;33476;50.984;3.538;2023-11-22T00:02:16;102825.16;;;10.39;66.54
47716;BME280;33476;50.984;3.538;2023-11-22T00:04:41;102827.03;;;10.30;66.62
47716;BME280;33476;50.984;3.538;2023-11-22T00:07:07;102825.34;;;10.27;66.78
47716;BME280;33476;50.984;3.538;2023-11-22T00:09:32;102823.66;;;10.23;66.85
47716;BME280;33476;50.984;3.538;2023-11-22T00:11:58;102827.19;;;10.19;66.92
47716;BME280;33476;50.984;3.538;2023-11-22T00:14:25;102826.34;;;10.16;66.80
47716;BME280;33476;50.984;3.538;2023-11-22T00:16:51;102818.63;;;10.09;66.90
47716;BME280;33476;50.984;3.538;2023-11-22T00:19:16;102820.34;;;10.07;66.82
47716;BME280;33476;50.984;3.538;2023-11-22T00:21:43;102822.16;;;10.04;66.53
47716;BME280;33476;50.984;3.538;2023-11-22T00:24:10;102818.75;;;9.97;66.51
47716;BME280;33476;50.984;3.538;2023-11-22T00:26:35;102819.69;;;9.92;66.77
47716;BME280;33476;50.984;3.538;2023-11-22T00:29:00;102825.84;;;9.89;66.67
47716;BME280;33476;50.984;3.538;2023-11-22T00:31:26;102828.41;;;9.91;66.58
47716;BME280;33476;50.984;3.538;2023-11-22T00:33:51;102821.56;;;9.82;66.75
47716;BME280;33476;50.984;3.538;2023-11-22T00:36:16;102825.13;;;9.75;67.04
47716;BME280;33476;50.984;3.538;2023-11-22T00:38:42;102846.09;;;9.70;66.83
47716;BME280;33476;50.984;3.538;2023-11-22T00:41:07;102842.63;;;9.67;66.53
47716;BME280;33476;50.984;3.538;2023-11-22T00:43:36;102853.09;;;9.65;66.81
47716;BME280;33476;50.984;3.538;2023-11-22T00:46:02;102857.50;;;9.58;66.48
47716;BME280;33476;50.984;3.538;2023-11-22T00:48:27;102861.06;;;9.53;66.91
47716;BME280;33476;50.984;3.538;2023-11-22T00:50:53;102863.69;;;9.50;66.53
47716;BME280;33476;50.984;3.538;2023-11-22T00:53:18;102866.38;;;9.45;66.41
47716;BME280;33476;50.984;3.538;2023-11-22T00:55:43;102861.16;;;9.42;66.19
47716;BME280;33476;50.984;3.538;2023-11-22T00:58:09;102869.06;;;9.38;66.31
47716;BME280;33476;50.984;3.538;2023-11-22T01:00:34;102873.44;;;9.36;66.17
47716;BME280;33476;50.984;3.538;2023-11-22T01:02:59;102876.06;;;9.31;66.49
47716;BME280;33476;50.984;3.538;2023-11-22T01:05:25;102880.47;;;9.27;66.21
47716;BME280;33476;50.984;3.538;2023-11-22T01:07:50;102877.88;;;9.23;66.19
47716;BME280;33476;50.984;3.538;2023-11-22T01:10:15;102878.81;;;9.19;66.23
47716;BME280;33476;50.984;3.538;2023-11-22T01:12:41;102874.53;;;9.12;66.30
47716;BME280;33476;50.984;3.538;2023-11-22T01:15:09;102874.56;;;9.06;66.65
47716;BME280;33476;50.984;3.538;2023-11-22T01:17:35;102867.63;;;9.01;66.98
47716;BME280;33476;50.984;3.538;2023-11-22T01:20:01;102878.94;;;9.00;66.56
47716;BME280;33476;50.984;3.538;2023-11-22T01:22:26;102881.59;;;8.97;66.22
47716;BME280;33476;50.984;3.538;2023-11-22T01:24:52;102892.91;;;8.93;66.47
47716;BME280;33476;50.984;3.538;2023-11-22T01:27:18;102889.47;;;8.88;66.20
47716;BME280;33476;50.984;3.538;2023-11-22T01:29:43;102896.44;;;8.88;66.04
47716;BME280;33476;50.984;3.538;2023-11-22T01:32:08;102902.56;;;8.81;65.76
47716;BME280;33476;50.984;3.538;2023-11-22T01:34:36;102915.63;;;8.75;65.53
47716;BME280;33476;50.984;3.538;2023-11-22T01:37:03;102917.41;;;8.69;66.04
47716;BME280;33476;50.984;3.538;2023-11-22T01:39:28;102913.94;;;8.66;65.94
47716;BME280;33476;50.984;3.538;2023-11-22T01:41:54;102913.97;;;8.63;66.08
47716;BME280;33476;50.984;3.538;2023-11-22T01:44:20;102913.13;;;8.58;65.58
47716;BME280;33476;50.984;3.538;2023-11-22T01:46:45;102914.88;;;8.57;65.64
47716;BME280;33476;50.984;3.538;2023-11-22T01:49:11;102915.75;;;8.56;65.61
47716;BME280;33476;50.984;3.538;2023-11-22T01:51:40;102912.31;;;8.53;66.24
47716;BME280;33476;50.984;3.538;2023-11-22T01:54:08;102901.88;;;8.51;66.16
47716;BME280;33476;50.984;3.538;2023-11-22T01:56:35;102903.66;;;8.43;65.59
47716;BME280;33476;50.984;3.538;2023-11-22T01:59:03;102904.59;;;8.37;65.95
47716;BME280;33476;50.984;3.538;2023-11-22T02:01:29;102901.09;;;8.32;66.18
47716;BME280;33476;50.984;3.538;2023-11-22T02:03:55;102901.13;;;8.29;66.19
47716;BME280;33476;50.984;3.538;2023-11-22T02:06:21;102908.06;;;8.27;66.11
47716;BME280;33476;50.984;3.538;2023-11-22T02:08:47;102905.44;;;8.27;65.76
47716;BME280;33476;50.984;3.538;2023-11-22T02:11:13;102906.34;;;8.25;65.63
47716;BME280;33476;50.984;3.538;2023-11-22T02:13:41;102905.50;;;8.21;66.11
47716;BME280;33476;50.984;3.538;2023-11-22T02:16:07;102916.75;;;8.23;65.98
47716;BME280;33476;50.984;3.538;2023-11-22T02:18:32;102920.22;;;8.24;65.69
47716;BME280;33476;50.984;3.538;2023-11-22T02:20:57;102928.91;;;8.23;65.65
47716;BME280;33476;50.984;3.538;2023-11-22T02:23:23;102931.53;;;8.23;65.75
47716;BME280;33476;50.984;3.538;2023-11-22T02:25:48;102938.47;;;8.24;65.56
47716;BME280;33476;50.984;3.538;2023-11-22T02:28:14;102929.81;;;8.17;65.75
47716;BME280;33476;50.984;3.538;2023-11-22T02:30:39;102928.97;;;8.12;66.22
47716;BME280;33476;50.984;3.538;2023-11-22T02:33:05;102927.22;;;8.12;66.26
47716;BME280;33476;50.984;3.538;2023-11-22T02:35:31;102925.50;;;8.11;66.22
47716;BME280;33476;50.984;3.538;2023-11-22T02:38:00;102913.34;;;8.10;65.70
47716;BME280;33476;50.984;3.538;2023-11-22T02:40:25;102915.09;;;8.11;66.17
47716;BME280;33476;50.984;3.538;2023-11-22T02:42:52;102914.22;;;8.11;66.16
47716;BME280;33476;50.984;3.538;2023-11-22T02:45:20;102919.41;;;8.09;66.24
47716;BME280;33476;50.984;3.538;2023-11-22T02:47:48;102922.88;;;8.10;66.09
47716;BME280;33476;50.984;3.538;2023-11-22T02:50:15;102918.59;;;8.06;66.33
47716;BME280;33476;50.984;3.538;2023-11-22T02:52:40;102922.91;;;8.05;66.21
47716;BME280;33476;50.984;3.538;2023-11-22T02:55:07;102919.47;;;8.03;66.57
47716;BME280;33476;50.984;3.538;2023-11-22T02:57:32;102919.47;;;8.03;66.30
47716;BME280;33476;50.984;3.538;2023-11-22T02:59:58;102913.38;;;8.06;65.63
47716;BME280;33476;50.984;3.538;2023-11-22T03:02:23;102934.22;;;8.04;65.89
47716;BME280;33476;50.984;3.538;2023-11-22T03:04:49;102935.03;;;8.08;65.76
47716;BME280;33476;50.984;3.538;2023-11-22T03:07:15;102944.59;;;8.07;65.88
47716;BME280;33476;50.984;3.538;2023-11-22T03:09:40;102948.09;;;8.05;66.16
47716;BME280;33476;50.984;3.538;2023-11-22T03:12:08;102942.00;;;8.01;65.97
47716;BME280;33476;50.984;3.538;2023-11-22T03:14:34;102942.00;;;8.01;66.47
47716;BME280;33476;50.984;3.538;2023-11-22T03:16:59;102950.69;;;8.05;66.16
47716;BME280;33476;50.984;3.538;2023-11-22T03:19:25;102950.69;;;8.03;66.68
47716;BME280;33476;50.984;3.538;2023-11-22T03:21:50;102938.53;;;8.04;66.25
47716;BME280;33476;50.984;3.538;2023-11-22T03:24:15;102948.94;;;8.02;65.71
47716;BME280;33476;50.984;3.538;2023-11-22T03:26:41;102948.06;;;8.02;66.33
47716;BME280;33476;50.984;3.538;2023-11-22T03:29:07;102955.91;;;7.99;66.54
47716;BME280;33476;50.984;3.538;2023-11-22T03:31:32;102944.63;;;7.97;66.20
47716;BME280;33476;50.984;3.538;2023-11-22T03:33:57;102948.97;;;7.93;66.86
47716;BME280;33476;50.984;3.538;2023-11-22T03:36:23;102950.69;;;7.94;66.27
47716;BME280;33476;50.984;3.538;2023-11-22T03:38:49;102955.91;;;7.97;66.29
47716;BME280;33476;50.984;3.538;2023-11-22T03:41:15;102956.78;;;7.95;66.38
47716;BME280;33476;50.984;3.538;2023-11-22T03:43:42;102968.94;;;7.91;66.36
47716;BME280;33476;50.984;3.538;2023-11-22T03:46:08;102963.69;;;7.94;66.68
47716;BME280;33476;50.984;3.538;2023-11-22T03:48:33;102967.16;;;7.99;67.27
47716;BME280;33476;50.984;3.538;2023-11-22T03:50:58;102979.31;;;8.03;66.34
47716;BME280;33476;50.984;3.538;2023-11-22T03:53:24;102983.66;;;8.04;66.61
47716;BME280;33476;50.984;3.538;2023-11-22T03:55:49;102990.59;;;8.05;66.90
47716;BME280;33476;50.984;3.538;2023-11-22T03:58:15;103001.84;;;8.06;66.89
47716;BME280;33476;50.984;3.538;2023-11-22T04:00:41;103007.91;;;8.08;66.83
47716;BME280;33476;50.984;3.538;2023-11-22T04:03:06;103011.38;;;8.10;66.66
47716;BME280;33476;50.984;3.538;2023-11-22T04:05:31;103016.59;;;8.13;66.86
47716;BME280;33476;50.984;3.538;2023-11-22T04:07:57;103024.41;;;8.14;66.61
47716;BME280;33476;50.984;3.538;2023-11-22T04:10:22;103027.84;;;8.15;66.57
47716;BME280;33476;50.984;3.538;2023-11-22T04:12:49;103028.72;;;8.14;66.46
47716;BME280;33476;50.984;3.538;2023-11-22T04:15:14;103023.53;;;8.15;66.95
47716;BME280;33476;50.984;3.538;2023-11-22T04:17:41;103030.44;;;8.18;66.93
47716;BME280;33476;50.984;3.538;2023-11-22T04:20:07;103024.38;;;8.16;66.72
47716;BME280;33476;50.984;3.538;2023-11-22T04:22:36;103025.28;;;8.13;66.76
47716;BME280;33476;50.984;3.538;2023-11-22T04:25:02;103027.00;;;8.13;67.11
47716;BME280;33476;50.984;3.538;2023-11-22T04:27:28;103027.00;;;8.11;66.82
47716;BME280;33476;50.984;3.538;2023-11-22T04:29:53;103033.94;;;8.08;67.30
47716;BME280;33476;50.984;3.538;2023-11-22T04:32:18;103030.50;;;8.03;67.14
47716;BME280;33476;50.984;3.538;2023-11-22T04:34:44;103023.56;;;7.99;67.42
47716;BME280;33476;50.984;3.538;2023-11-22T04:37:09;103023.53;;;8.02;67.32
47716;BME280;33476;50.984;3.538;2023-11-22T04:39:35;103026.16;;;8.05;67.18
47716;BME280;33476;50.984;3.538;2023-11-22T04:42:00;103029.63;;;8.11;67.51
47716;BME280;33476;50.984;3.538;2023-11-22T04:44:26;103033.94;;;8.14;67.56
47716;BME280;33476;50.984;3.538;2023-11-22T04:46:51;103033.06;;;8.21;67.74
47716;BME280;33476;50.984;3.538;2023-11-22T04:49:17;103036.50;;;8.25;67.69
47716;BME280;33476;50.984;3.538;2023-11-22T04:51:42;103042.56;;;8.31;67.00
47716;BME280;33476;50.984;3.538;2023-11-22T04:54:09;103039.97;;;8.33;67.49
47716;BME280;33476;50.984;3.538;2023-11-22T04:56:34;103046.03;;;8.30;67.40
47716;BME280;33476;50.984;3.538;2023-11-22T04:59:00;103044.31;;;8.31;67.26
47716;BME280;33476;50.984;3.538;2023-11-22T05:01:31;103040.84;;;8.26;67.33
47716;BME280;33476;50.984;3.538;2023-11-22T05:03:56;103035.63;;;8.24;67.35
47716;BME280;33476;50.984;3.538;2023-11-22T05:06:22;103031.31;;;8.25;67.11
47716;BME280;33476;50.984;3.538;2023-11-22T05:08:47;103033.94;;;8.20;67.12
47716;BME280;33476;50.984;3.538;2023-11-22T05:11:12;103038.28;;;8.15;67.22
47716;BME280;33476;50.984;3.538;2023-11-22T05:13:37;103043.50;;;8.13;67.30
47716;BME280;33476;50.984;3.538;2023-11-22T05:16:03;103034.81;;;8.11;66.97
47716;BME280;33476;50.984;3.538;2023-11-22T05:18:28;103038.31;;;8.04;67.48
47716;BME280;33476;50.984;3.538;2023-11-22T05:20:54;103036.56;;;8.00;67.40
47716;BME280;33476;50.984;3.538;2023-11-22T05:23:19;103039.16;;;8.00;67.27
47716;BME280;33476;50.984;3.538;2023-11-22T05:25:44;103049.59;;;7.97;67.62
47716;BME280;33476;50.984;3.538;2023-11-22T05:28:10;103052.19;;;7.96;67.40
47716;BME280;33476;50.984;3.538;2023-11-22T05:30:35;103046.13;;;7.92;67.23
47716;BME280;33476;50.984;3.538;2023-11-22T05:33:00;103052.19;;;7.89;67.26
47716;BME280;33476;50.984;3.538;2023-11-22T05:35:25;103055.66;;;7.85;67.22
47716;BME280;33476;50.984;3.538;2023-11-22T05:37:51;103045.25;;;7.82;67.33
47716;BME280;33476;50.984;3.538;2023-11-22T05:40:16;103045.28;;;7.81;67.09
47716;BME280;33476;50.984;3.538;2023-11-22T05:42:41;103050.47;;;7.81;66.99
47716;BME280;33476;50.984;3.538;2023-11-22T05:45:07;103042.69;;;7.79;67.15
47716;BME280;33476;50.984;3.538;2023-11-22T05:47:33;103052.19;;;7.77;66.74
47716;BME280;33476;50.984;3.538;2023-11-22T05:49:59;103057.41;;;7.77;66.86
47716;BME280;33476;50.984;3.538;2023-11-22T05:52:24;103044.41;;;7.73;67.40
47716;BME280;33476;50.984;3.538;2023-11-22T05:54:49;103032.28;;;7.70;67.08
47716;BME280;33476;50.984;3.538;2023-11-22T05:57:15;103031.41;;;7.71;66.96
47716;BME280;33476;50.984;3.538;2023-11-22T05:59:40;103020.16;;;7.63;66.86
47716;BME280;33476;50.984;3.538;2023-11-22T06:02:06;103019.28;;;7.63;67.25
47716;BME280;33476;50.984;3.538;2023-11-22T06:04:31;103016.66;;;7.69;67.24
47716;BME280;33476;50.984;3.538;2023-11-22T06:06:57;103030.53;;;7.71;66.55
47716;BME280;33476;50.984;3.538;2023-11-22T06:09:22;103031.41;;;7.70;66.92
47716;BME280;33476;50.984;3.538;2023-11-22T06:11:48;103029.66;;;7.69;67.00
47716;BME280;33476;50.984;3.538;2023-11-22T06:14:14;103033.13;;;7.68;67.11
47716;BME280;33476;50.984;3.538;2023-11-22T06:16:39;103035.72;;;7.68;67.00
47716;BME280;33476;50.984;3.538;2023-11-22T06:19:04;103047.84;;;7.69;66.98
47716;BME280;33476;50.984;3.538;2023-11-22T06:21:30;103049.63;;;7.70;67.49
47716;BME280;33476;50.984;3.538;2023-11-22T06:23:55;103059.16;;;7.74;67.49
47716;BME280;33476;50.984;3.538;2023-11-22T06:26:23;103069.56;;;7.72;67.03
47716;BME280;33476;50.984;3.538;2023-11-22T06:28:49;103071.31;;;7.70;67.03
47716;BME280;33476;50.984;3.538;2023-11-22T06:31:15;103084.28;;;7.73;67.27
47716;BME280;33476;50.984;3.538;2023-11-22T06:33:40;103091.22;;;7.73;67.21
47716;BME280;33476;50.984;3.538;2023-11-22T06:36:06;103105.09;;;7.73;67.35
47716;BME280;33476;50.984;3.538;2023-11-22T06:38:31;103105.97;;;7.74;67.26
47716;BME280;33476;50.984;3.538;2023-11-22T06:40:57;103110.28;;;7.76;66.87
47716;BME280;33476;50.984;3.538;2023-11-22T06:43:22;103113.78;;;7.78;67.38
47716;BME280;33476;50.984;3.538;2023-11-22T06:45:48;103106.81;;;7.76;67.28
47716;BME280;33476;50.984;3.538;2023-11-22T06:48:13;103104.22;;;7.76;67.37
47716;BME280;33476;50.984;3.538;2023-11-22T06:50:38;103095.56;;;7.77;67.59
47716;BME280;33476;50.984;3.538;2023-11-22T06:53:05;103095.56;;;7.77;67.87
47716;BME280;33476;50.984;3.538;2023-11-22T06:55:31;103090.38;;;7.81;67.52
47716;BME280;33476;50.984;3.538;2023-11-22T06:57:58;103075.63;;;7.79;67.50
47716;BME280;33476;50.984;3.538;2023-11-22T07:00:23;103072.16;;;7.80;67.53
47716;BME280;33476;50.984;3.538;2023-11-22T07:02:48;103073.00;;;7.85;67.68
47716;BME280;33476;50.984;3.538;2023-11-22T07:05:14;103066.94;;;7.84;68.08
47716;BME280;33476;50.984;3.538;2023-11-22T07:07:40;103072.13;;;7.86;67.58
47716;BME280;33476;50.984;3.538;2023-11-22T07:10:06;103073.88;;;7.85;67.76
47716;BME280;33476;50.984;3.538;2023-11-22T07:12:32;103061.75;;;7.81;67.62
47716;BME280;33476;50.984;3.538;2023-11-22T07:14:59;103063.47;;;7.85;67.80
47716;BME280;33476;50.984;3.538;2023-11-22T07:17:25;103062.59;;;7.83;67.89
47716;BME280;33476;50.984;3.538;2023-11-22T07:19:52;103069.53;;;7.84;68.01
47716;BME280;33476;50.984;3.538;2023-11-22T07:22:18;103070.44;;;7.86;68.11
47716;BME280;33476;50.984;3.538;2023-11-22T07:24:48;103072.16;;;7.87;67.79
47716;BME280;33476;50.984;3.538;2023-11-22T07:27:16;103093.84;;;7.88;68.04
47716;BME280;33476;50.984;3.538;2023-11-22T07:29:43;103094.69;;;7.90;68.17
47716;BME280;33476;50.984;3.538;2023-11-22T07:32:09;103095.56;;;7.89;68.12
47716;BME280;33476;50.984;3.538;2023-11-22T07:34:36;103095.56;;;7.91;67.95
47716;BME280;33476;50.984;3.538;2023-11-22T07:37:02;103102.50;;;7.96;67.91
47716;BME280;33476;50.984;3.538;2023-11-22T07:39:28;103107.72;;;7.96;67.75
47716;BME280;33476;50.984;3.538;2023-11-22T07:41:54;103118.13;;;7.98;68.22
47716;BME280;33476;50.984;3.538;2023-11-22T07:44:21;103125.91;;;7.98;68.12
47716;BME280;33476;50.984;3.538;2023-11-22T07:46:46;103120.69;;;8.01;68.04
47716;BME280;33476;50.984;3.538;2023-11-22T07:49:12;103119.84;;;8.00;68.53
47716;BME280;33476;50.984;3.538;2023-11-22T07:51:39;103127.66;;;8.00;68.47
47716;BME280;33476;50.984;3.538;2023-11-22T07:54:04;103119.84;;;8.08;67.53
47716;BME280;33476;50.984;3.538;2023-11-22T07:56:31;103130.25;;;8.09;67.58
47716;BME280;33476;50.984;3.538;2023-11-22T07:58:58;103130.25;;;8.12;68.09
47716;BME280;33476;50.984;3.538;2023-11-22T08:01:23;103139.78;;;8.13;67.92
47716;BME280;33476;50.984;3.538;2023-11-22T08:03:48;103145.00;;;8.13;67.92
47716;BME280;33476;50.984;3.538;2023-11-22T08:06:17;103153.69;;;8.14;68.37
47716;BME280;33476;50.984;3.538;2023-11-22T08:08:43;103152.81;;;8.15;67.98
47716;BME280;33476;50.984;3.538;2023-11-22T08:11:11;103165.81;;;8.18;67.95
47716;BME280;33476;50.984;3.538;2023-11-22T08:13:43;103161.47;;;8.18;68.53
47716;BME280;33476;50.984;3.538;2023-11-22T08:16:10;103171.88;;;8.26;68.20
47716;BME280;33476;50.984;3.538;2023-11-22T08:18:38;103178.81;;;8.27;68.38
47716;BME280;33476;50.984;3.538;2023-11-22T08:21:04;103186.63;;;8.32;67.95
47716;BME280;33476;50.984;3.538;2023-11-22T08:23:29;103186.66;;;8.35;68.47
47716;BME280;33476;50.984;3.538;2023-11-22T08:26:00;103201.41;;;8.42;68.26
47716;BME280;33476;50.984;3.538;2023-11-22T08:28:25;103191.88;;;8.53;68.05
47716;BME280;33476;50.984;3.538;2023-11-22T08:30:51;103190.09;;;8.64;67.73
47716;BME280;33476;50.984;3.538;2023-11-22T08:33:17;103193.53;;;8.82;67.93
47716;BME280;33476;50.984;3.538;2023-11-22T08:35:42;103183.91;;;9.07;67.57
47716;BME280;33476;50.984;3.538;2023-11-22T08:38:08;103185.53;;;9.26;67.03
47716;BME280;33476;50.984;3.538;2023-11-22T08:40:35;103180.25;;;9.44;66.94
47716;BME280;33476;50.984;3.538;2023-11-22T08:43:03;103175.81;;;9.60;67.11
47716;BME280;33476;50.984;3.538;2023-11-22T08:45:29;103172.22;;;9.73;67.16
47716;BME280;33476;50.984;3.538;2023-11-22T08:47:57;103178.28;;;9.80;67.61
47716;BME280;33476;50.984;3.538;2023-11-22T08:50:22;103172.91;;;9.98;67.57
47716;BME280;33476;50.984;3.538;2023-11-22T08:52:48;103179.69;;;10.24;67.17
47716;BME280;33476;50.984;3.538;2023-11-22T08:55:18;103185.56;;;10.52;67.15
47716;BME280;33476;50.984;3.538;2023-11-22T08:57:45;103173.97;;;10.74;66.75
47716;BME280;33476;50.984;3.538;2023-11-22T09:00:12;103180.72;;;10.95;66.76
47716;BME280;33476;50.984;3.538;2023-11-22T09:02:39;103169.94;;;11.19;66.35
47716;BME280;33476;50.984;3.538;2023-11-22T09:05:06;103159.94;;;11.50;65.80
47716;BME280;33476;50.984;3.538;2023-11-22T09:07:35;103166.44;;;11.82;65.56
47716;BME280;33476;50.984;3.538;2023-11-22T09:10:02;103158.25;;;12.03;64.98
47716;BME280;33476;50.984;3.538;2023-11-22T09:12:38;103166.63;;;12.25;64.86
47716;BME280;33476;50.984;3.538;2023-11-22T09:15:08;103167.19;;;12.41;63.97
47716;BME280;33476;50.984;3.538;2023-11-22T09:17:39;103179.28;;;12.50;63.91
47716;BME280;33476;50.984;3.538;2023-11-22T09:20:14;103174.78;;;12.56;63.64
47716;BME280;33476;50.984;3.538;2023-11-22T09:22:48;103183.63;;;12.49;63.50
47716;BME280;33476;50.984;3.538;2023-11-22T09:25:15;103180.13;;;12.52;63.24
47716;BME280;33476;50.984;3.538;2023-11-22T09:27:44;103183.72;;;12.46;63.13
47716;BME280;33476;50.984;3.538;2023-11-22T09:30:14;103193.44;;;12.40;63.00
47716;BME280;33476;50.984;3.538;2023-11-22T09:32:45;103204.91;;;12.34;63.54
47716;BME280;33476;50.984;3.538;2023-11-22T09:35:14;103205.81;;;12.33;63.62
47716;BME280;33476;50.984;3.538;2023-11-22T09:37:40;103200.69;;;12.24;63.14
47716;BME280;33476;50.984;3.538;2023-11-22T09:40:08;103189.31;;;12.26;63.39
47716;BME280;33476;50.984;3.538;2023-11-22T09:42:34;103188.38;;;12.29;63.80
47716;BME280;33476;50.984;3.538;2023-11-22T09:45:00;103183.94;;;12.32;63.64
47716;BME280;33476;50.984;3.538;2023-11-22T09:47:27;103187.72;;;12.16;63.64
47716;BME280;33476;50.984;3.538;2023-11-22T09:49:54;103190.56;;;12.04;63.64
47716;BME280;33476;50.984;3.538;2023-11-22T09:52:24;103203.75;;;11.98;63.85
47716;BME280;33476;50.984;3.538;2023-11-22T09:54:53;103205.63;;;11.88;64.02
47716;BME280;33476;50.984;3.538;2023-11-22T09:57:20;103209.22;;;11.84;64.17
47716;BME280;33476;50.984;3.538;2023-11-22T09:59:49;103213.63;;;11.77;64.03
47716;BME280;33476;50.984;3.538;2023-11-22T10:02:17;103206.72;;;11.72;64.04
47716;BME280;33476;50.984;3.538;2023-11-22T10:04:42;103205.06;;;11.65;64.03
47716;BME280;33476;50.984;3.538;2023-11-22T10:07:09;103198.19;;;11.58;64.05
47716;BME280;33476;50.984;3.538;2023-11-22T10:09:35;103196.44;;;11.60;63.94
47716;BME280;33476;50.984;3.538;2023-11-22T10:12:03;103189.38;;;11.65;64.01
47716;BME280;33476;50.984;3.538;2023-11-22T10:14:30;103187.53;;;11.71;63.54
47716;BME280;33476;50.984;3.538;2023-11-22T10:16:59;103184.00;;;11.75;63.31
47716;BME280;33476;50.984;3.538;2023-11-22T10:19:26;103182.16;;;11.82;62.95
47716;BME280;33476;50.984;3.538;2023-11-22T10:22:02;103177.72;;;11.87;62.76
47716;BME280;33476;50.984;3.538;2023-11-22T10:24:30;103184.47;;;12.02;62.49
47716;BME280;33476;50.984;3.538;2023-11-22T10:26:58;103190.50;;;12.08;62.41
47716;BME280;33476;50.984;3.538;2023-11-22T10:29:27;103180.78;;;12.14;61.79
47716;BME280;33476;50.984;3.538;2023-11-22T10:31:52;103180.78;;;12.14;61.82
47716;BME280;33476;50.984;3.538;2023-11-22T10:34:21;103170.31;;;12.14;62.06
47716;BME280;33476;50.984;3.538;2023-11-22T10:36:47;103166.75;;;12.16;61.93
47716;BME280;33476;50.984;3.538;2023-11-22T10:39:13;103155.31;;;12.22;61.67
47716;BME280;33476;50.984;3.538;2023-11-22T10:41:42;103164.56;;;12.43;60.92
47716;BME280;33476;50.984;3.538;2023-11-22T10:44:09;103162.66;;;12.49;60.92
47716;BME280;33476;50.984;3.538;2023-11-22T10:46:34;103161.75;;;12.53;61.05
47716;BME280;33476;50.984;3.538;2023-11-22T10:49:00;103162.13;;;12.78;60.49
47716;BME280;33476;50.984;3.538;2023-11-22T10:51:33;103145.81;;;13.06;59.77
47716;BME280;33476;50.984;3.538;2023-11-22T10:54:00;103140.19;;;13.26;59.46
47716;BME280;33476;50.984;3.538;2023-11-22T10:56:31;103128.50;;;13.39;59.13
47716;BME280;33476;50.984;3.538;2023-11-22T10:59:05;103120.63;;;13.39;58.80
47716;BME280;33476;50.984;3.538;2023-11-22T11:01:35;103124.84;;;13.46;58.95
47716;BME280;33476;50.984;3.538;2023-11-22T11:04:02;103129.94;;;13.52;58.55
47716;BME280;33476;50.984;3.538;2023-11-22T11:06:32;103124.47;;;13.61;58.63
47716;BME280;33476;50.984;3.538;2023-11-22T11:09:03;103109.81;;;13.53;58.55
47716;BME280;33476;50.984;3.538;2023-11-22T11:11:35;103097.63;;;13.48;58.60
47716;BME280;33476;50.984;3.538;2023-11-22T11:14:02;103088.88;;;13.49;58.40
47716;BME280;33476;50.984;3.538;2023-11-22T11:16:30;103083.88;;;13.39;58.42
47716;BME280;33476;50.984;3.538;2023-11-22T11:18:56;103088.38;;;13.34;58.36
47716;BME280;33476;50.984;3.538;2023-11-22T11:21:23;103091.69;;;13.40;58.18
47716;BME280;33476;50.984;3.538;2023-11-22T11:23:51;103094.19;;;13.46;58.46
47716;BME280;33476;50.984;3.538;2023-11-22T11:26:18;103097.44;;;13.58;57.91
47716;BME280;33476;50.984;3.538;2023-11-22T11:28:49;103101.63;;;13.65;57.55
47716;BME280;33476;50.984;3.538;2023-11-22T11:31:16;103099.16;;;13.59;57.60
47716;BME280;33476;50.984;3.538;2023-11-22T11:33:59;103096.25;;;13.34;57.93
47716;BME280;33476;50.984;3.538;2023-11-22T11:36:29;103093.75;;;13.28;58.01
47716;BME280;33476;50.984;3.538;2023-11-22T11:39:00;103102.47;;;13.30;58.15
47716;BME280;33476;50.984;3.538;2023-11-22T11:41:29;103104.91;;;13.37;58.42
47716;BME280;33476;50.984;3.538;2023-11-22T11:43:56;103097.84;;;13.39;58.28
47716;BME280;33476;50.984;3.538;2023-11-22T11:46:21;103114.41;;;13.43;58.14
47716;BME280;33476;50.984;3.538;2023-11-22T11:48:53;103130.13;;;13.44;58.26
47716;BME280;33476;50.984;3.538;2023-11-22T11:51:21;103147.56;;;13.47;57.76
47716;BME280;33476;50.984;3.538;2023-11-22T11:53:48;103148.66;;;13.37;58.24
47716;BME280;33476;50.984;3.538;2023-11-22T11:56:14;103139.13;;;13.34;58.52
47716;BME280;33476;50.984;3.538;2023-11-22T11:58:43;103145.56;;;13.18;58.36
47716;BME280;33476;50.984;3.538;2023-11-22T12:01:12;103138.72;;;13.11;58.59
47716;BME280;33476;50.984;3.538;2023-11-22T12:03:37;103150.06;;;13.11;58.40
47716;BME280;33476;50.984;3.538;2023-11-22T12:06:04;103142.25;;;13.10;58.36
47716;BME280;33476;50.984;3.538;2023-11-22T12:08:30;103114.28;;;13.09;58.22
47716;BME280;33476;50.984;3.538;2023-11-22T12:10:58;103108.13;;;13.10;58.48
47716;BME280;33476;50.984;3.538;2023-11-22T12:13:24;103101.94;;;13.12;58.65
47716;BME280;33476;50.984;3.538;2023-11-22T12:15:51;103106.34;;;13.12;58.61
47716;BME280;33476;50.984;3.538;2023-11-22T12:18:18;103121.31;;;13.07;58.40
47716;BME280;33476;50.984;3.538;2023-11-22T12:20:57;103125.94;;;12.96;58.67
47716;BME280;33476;50.984;3.538;2023-11-22T12:23:24;103111.22;;;12.88;58.43
47716;BME280;33476;50.984;3.538;2023-11-22T12:25:54;103106.16;;;12.79;58.46
47716;BME280;33476;50.984;3.538;2023-11-22T12:28:22;103093.25;;;12.70;58.87
47716;BME280;33476;50.984;3.538;2023-11-22T12:30:48;103072.41;;;12.62;58.99
47716;BME280;33476;50.984;3.538;2023-11-22T12:33:14;103066.34;;;12.60;59.04
47716;BME280;33476;50.984;3.538;2023-11-22T12:35:43;103065.44;;;12.61;58.75
47716;BME280;33476;50.984;3.538;2023-11-22T12:38:09;103058.38;;;12.65;59.02
47716;BME280;33476;50.984;3.538;2023-11-22T12:40:35;103054.84;;;12.68;59.04
47716;BME280;33476;50.984;3.538;2023-11-22T12:43:02;103051.44;;;12.62;58.78
47716;BME280;33476;50.984;3.538;2023-11-22T12:45:30;103049.91;;;12.52;59.28
47716;BME280;33476;50.984;3.538;2023-11-22T12:47:56;103048.44;;;12.39;59.52
47716;BME280;33476;50.984;3.538;2023-11-22T12:50:38;103035.72;;;12.19;59.99
47716;BME280;33476;50.984;3.538;2023-11-22T12:53:11;103033.19;;;12.15;60.12
47716;BME280;33476;50.984;3.538;2023-11-22T12:55:47;103034.31;;;12.01;60.01